Time;durP1;ratioP1;P1;durP2;ratioP2;P2;SDS_P1;SDS_P2;PMS_P1;PMS_P2;Temp;Humidity;BMP_temperature;BMP_pressure;BME280_temperature;BME280_humidity;BME280_pressure;Samples;Min_cycle;Max_cycle;Signal;HPM_P1;HPM_P2
2023/04/23 00:09:40;;;;;;;15.5;10.3;;;;;;;6.3;72.3;98340;;;;
2023/04/23 00:20:40;;;;;;;15.5;10.3;;;;;;;6.4;73.1;98330;;;;
2023/04/23 00:30:40;;;;;;;15.5;10.3;;;;;;;6.3;72.8;98330;;;;
2023/04/23 00:41:41;;;;;;;21.5;11.2;;;;;;;6.2;72.8;98330;;;;
2023/04/23 00:51:40;;;;;;;21.5;11.2;;;;;;;6.1;71.9;98320;;;;
2023/04/23 01:02:41;;;;;;;21.5;11.2;;;;;;;5.9;72.2;98330;;;;
2023/04/23 01:12:40;;;;;;;16.1;9.8;;;;;;;5.8;72.4;98340;;;;
2023/04/23 01:22:40;;;;;;;16.1;9.8;;;;;;;5.6;73.2;98330;;;;
2023/04/23 01:32:40;;;;;;;16.1;9.8;;;;;;;5.5;74.4;98330;;;;
2023/04/23 01:43:40;;;;;;;19;11.7;;;;;;;5.4;74.9;98340;;;;
2023/04/23 01:53:40;;;;;;;19;11.7;;;;;;;5.4;74.8;98330;;;;
2023/04/23 02:03:41;;;;;;;19;11.7;;;;;;;5.3;74.5;98330;;;;
2023/04/23 02:14:40;;;;;;;18.5;11;;;;;;;5.2;74.4;98340;;;;
2023/04/23 02:25:41;;;;;;;18.5;11;;;;;;;5.1;74.7;98340;;;;
2023/04/23 02:35:40;;;;;;;18.5;11;;;;;;;5;75.3;98330;;;;
2023/04/23 02:46:40;;;;;;;23.7;13.2;;;;;;;5;76.2;98330;;;;
2023/04/23 02:57:41;;;;;;;23.7;13.2;;;;;;;5;76.8;98320;;;;
2023/04/23 03:07:40;;;;;;;23.7;13.2;;;;;;;5.1;78.4;98320;;;;
2023/04/23 03:17:41;;;;;;;22;12.5;;;;;;;5.1;77.5;98320;;;;
2023/04/23 03:27:41;;;;;;;22;12.5;;;;;;;5;77;98320;;;;
2023/04/23 03:38:40;;;;;;;25.7;13.2;;;;;;;4.9;77;98320;;;;
2023/04/23 03:48:41;;;;;;;25.7;13.2;;;;;;;4.9;77.2;98320;;;;
2023/04/23 03:59:40;;;;;;;25.7;13.2;;;;;;;5;77.1;98330;;;;
2023/04/23 04:09:41;;;;;;;21.1;11.6;;;;;;;5;77.4;98330;;;;
2023/04/23 04:20:43;;;;;;;21.1;11.6;;;;;;;5.2;77.8;98330;;;;
2023/04/23 04:31:40;;;;;;;21.1;11.6;;;;;;;5.5;77.8;98330;;;;
2023/04/23 04:42:41;;;;;;;21;12.6;;;;;;;5.9;77.7;98340;;;;
2023/04/23 04:53:40;;;;;;;21;12.6;;;;;;;6.4;77.9;98340;;;;
2023/04/23 05:03:41;;;;;;;21;12.6;;;;;;;6.8;77.6;98340;;;;
2023/04/23 05:14:40;;;;;;;21.7;12.2;;;;;;;7.4;77.2;98340;;;;
2023/04/23 05:25:40;;;;;;;21.7;12.2;;;;;;;8.1;76.2;98340;;;;
2023/04/23 05:35:40;;;;;;;21.7;12.2;;;;;;;8.6;75.2;98340;;;;
2023/04/23 05:45:41;;;;;;;23.2;14.8;;;;;;;9.3;74.5;98340;;;;
2023/04/23 05:55:41;;;;;;;23.2;14.8;;;;;;;10.3;73.3;98340;;;;
2023/04/23 06:06:40;;;;;;;23.2;14.8;;;;;;;11;71.3;98340;;;;
2023/04/23 06:17:41;;;;;;;22.2;17.3;;;;;;;11.4;69.8;98350;;;;
2023/04/23 06:27:40;;;;;;;22.2;17.3;;;;;;;11.7;69.8;98350;;;;
2023/04/23 06:37:41;;;;;;;22.2;17.3;;;;;;;12.2;69.2;98350;;;;
2023/04/23 06:47:41;;;;;;;18.2;14.6;;;;;;;12.7;68.6;98340;;;;
2023/04/23 06:58:41;;;;;;;18.2;14.6;;;;;;;13.4;67.3;98340;;;;
2023/04/23 07:08:41;;;;;;;14.7;12.9;;;;;;;14;64.7;98330;;;;
2023/04/23 07:19:41;;;;;;;14.7;12.9;;;;;;;14.7;61.7;98330;;;;
2023/04/23 07:30:41;;;;;;;14.7;12.9;;;;;;;15.4;59.7;98330;;;;
2023/04/23 07:40:41;;;;;;;13.3;10.5;;;;;;;15.9;58.3;98320;;;;
2023/04/23 07:50:41;;;;;;;13.3;10.5;;;;;;;16.5;56.2;98320;;;;
2023/04/23 08:01:41;;;;;;;13.3;10.5;;;;;;;17.1;55.1;98310;;;;
2023/04/23 08:12:41;;;;;;;13.8;8.9;;;;;;;17.7;52.7;98300;;;;
2023/04/23 08:22:41;;;;;;;13.8;8.9;;;;;;;18.3;51.9;98290;;;;
2023/04/23 08:32:41;;;;;;;13.8;8.9;;;;;;;18.7;48.9;98280;;;;
2023/04/23 08:43:41;;;;;;;11.4;6.7;;;;;;;19.2;45.9;98270;;;;
2023/04/23 08:53:41;;;;;;;11.4;6.7;;;;;;;19.2;44.7;98250;;;;
2023/04/23 09:03:41;;;;;;;11.4;6.7;;;;;;;19.7;41.8;98240;;;;
2023/04/23 09:13:41;;;;;;;7.1;4.6;;;;;;;20.3;39.6;98230;;;;
2023/04/23 09:24:42;;;;;;;7.1;4.6;;;;;;;20.9;39.8;98230;;;;
2023/04/23 09:34:41;;;;;;;7.1;4.6;;;;;;;21.2;36.3;98220;;;;
2023/04/23 09:45:41;;;;;;;9.7;4.4;;;;;;;21.7;38.7;98200;;;;
2023/04/23 09:55:42;;;;;;;9.7;4.4;;;;;;;22;35.6;98200;;;;
2023/04/23 10:05:41;;;;;;;9.7;4.4;;;;;;;22.1;37.1;98200;;;;
2023/04/23 10:16:41;;;;;;;7;3.5;;;;;;;21.9;32.2;98180;;;;
2023/04/23 10:27:41;;;;;;;7;3.5;;;;;;;22.3;35.8;98170;;;;
2023/04/23 10:38:41;;;;;;;6.9;3.9;;;;;;;22.1;32.9;98150;;;;
2023/04/23 10:48:41;;;;;;;6.9;3.9;;;;;;;21.8;31.2;98140;;;;
2023/04/23 10:58:41;;;;;;;6.9;3.9;;;;;;;22.2;32.5;98140;;;;
2023/04/23 11:08:41;;;;;;;6.3;3.3;;;;;;;22;33.9;98140;;;;
2023/04/23 11:18:41;;;;;;;6.3;3.3;;;;;;;22.3;32.2;98120;;;;
2023/04/23 11:28:41;;;;;;;6.3;3.3;;;;;;;22.8;33.1;98130;;;;
2023/04/23 11:39:42;;;;;;;6.6;3.8;;;;;;;22.6;33.1;98120;;;;
2023/04/23 11:50:41;;;;;;;6.6;3.8;;;;;;;22.9;34.1;98110;;;;
2023/04/23 12:00:41;;;;;;;6.6;3.8;;;;;;;23.5;32.9;98100;;;;
2023/04/23 12:10:42;;;;;;;5.7;3.3;;;;;;;23.1;30.2;98100;;;;
2023/04/23 12:21:42;;;;;;;5.7;3.3;;;;;;;23;29.8;98080;;;;
2023/04/23 12:31:41;;;;;;;5.7;3.3;;;;;;;23.1;28.7;98070;;;;
2023/04/23 12:42:41;;;;;;;6.9;3.6;;;;;;;23.3;31.8;98070;;;;
2023/04/23 12:52:41;;;;;;;6.9;3.6;;;;;;;23.2;30.2;98050;;;;
2023/04/23 13:02:41;;;;;;;6.9;3.6;;;;;;;23.4;31.9;98050;;;;
2023/04/23 13:13:41;;;;;;;7.3;3.7;;;;;;;23.4;30;98040;;;;
2023/04/23 13:23:41;;;;;;;7.3;3.7;;;;;;;23.8;30.8;98030;;;;
2023/04/23 13:33:41;;;;;;;7.3;3.7;;;;;;;24.4;29.6;98020;;;;
2023/04/23 13:43:41;;;;;;;6.6;3.1;;;;;;;24.2;32.4;98020;;;;
2023/04/23 13:54:41;;;;;;;6.6;3.1;;;;;;;24.8;32.6;98000;;;;
2023/04/23 14:04:41;;;;;;;6.6;3.1;;;;;;;25.1;30.5;97990;;;;
2023/04/23 14:15:41;;;;;;;6.1;3.6;;;;;;;25.1;27.6;97980;;;;
2023/04/23 14:26:43;;;;;;;6.1;3.6;;;;;;;25.7;28.8;97970;;;;
2023/04/23 14:37:43;;;;;;;6.1;3.6;;;;;;;24.8;30.8;97960;;;;
2023/04/23 14:47:46;;;;;;;5.7;3;;;;;;;23.9;29.1;97960;;;;
2023/04/23 14:58:41;;;;;;;5.7;3;;;;;;;24.6;29;97960;;;;
2023/04/23 15:08:41;;;;;;;6.1;3.3;;;;;;;24.9;28.4;97960;;;;
2023/04/23 15:19:41;;;;;;;6.1;3.3;;;;;;;25.7;27.4;97950;;;;
2023/04/23 15:29:41;;;;;;;6.1;3.3;;;;;;;26.6;26.7;97940;;;;
2023/04/23 15:40:42;;;;;;;5.6;2.9;;;;;;;26.9;26.2;97940;;;;
2023/04/23 15:51:41;;;;;;;5.6;2.9;;;;;;;25.5;27;97930;;;;
2023/04/23 16:01:41;;;;;;;5.6;2.9;;;;;;;26.4;28.6;97930;;;;
2023/04/23 16:11:41;;;;;;;5;2.8;;;;;;;25.1;28.3;97920;;;;
2023/04/23 16:22:41;;;;;;;5;2.8;;;;;;;23.3;30.2;97920;;;;
2023/04/23 16:32:41;;;;;;;5;2.8;;;;;;;23;31;97910;;;;
2023/04/23 16:42:41;;;;;;;8.9;4.2;;;;;;;22.2;32.3;97910;;;;
2023/04/23 16:52:41;;;;;;;8.9;4.2;;;;;;;21.3;34.2;97900;;;;
2023/04/23 17:03:41;;;;;;;8.9;4.2;;;;;;;20.2;35.9;97900;;;;
2023/04/23 17:13:42;;;;;;;8;4;;;;;;;19.5;37.1;97900;;;;
2023/04/23 17:24:41;;;;;;;8;4;;;;;;;18.7;38.4;97900;;;;
2023/04/23 17:35:41;;;;;;;8;4;;;;;;;18.1;40.2;97900;;;;
2023/04/23 17:46:41;;;;;;;9.5;5.5;;;;;;;17.8;42.3;97900;;;;
2023/04/23 17:56:41;;;;;;;9.5;5.5;;;;;;;17.6;42.7;97910;;;;
2023/04/23 18:06:41;;;;;;;9.5;5.5;;;;;;;17.5;42.9;97910;;;;
2023/04/23 18:17:41;;;;;;;11.9;6;;;;;;;17.5;42.2;97920;;;;
2023/04/23 18:28:41;;;;;;;11.9;6;;;;;;;17.4;42.7;97930;;;;
2023/04/23 18:38:41;;;;;;;9.6;6.6;;;;;;;17.3;43;97930;;;;
2023/04/23 18:48:41;;;;;;;9.6;6.6;;;;;;;17.1;43.6;97930;;;;
2023/04/23 18:59:41;;;;;;;9.6;6.6;;;;;;;17;44.5;97930;;;;
2023/04/23 19:09:41;;;;;;;9.8;6.5;;;;;;;16.7;45.9;97930;;;;
2023/04/23 19:20:41;;;;;;;9.8;6.5;;;;;;;16.5;45;97930;;;;
2023/04/23 19:31:41;;;;;;;9.8;6.5;;;;;;;16.3;44.9;97930;;;;
2023/04/23 19:42:41;;;;;;;9.7;6.3;;;;;;;16;46.1;97930;;;;
2023/04/23 19:52:41;;;;;;;9.7;6.3;;;;;;;15.6;46.7;97920;;;;
2023/04/23 20:02:42;;;;;;;9.7;6.3;;;;;;;15.4;47.5;97920;;;;
2023/04/23 20:13:41;;;;;;;10.4;7;;;;;;;15.3;47;97910;;;;
2023/04/23 20:23:41;;;;;;;10.4;7;;;;;;;15.1;47.3;97900;;;;
2023/04/23 20:34:41;;;;;;;10.4;7;;;;;;;14.9;47.7;97900;;;;
2023/04/23 20:44:44;;;;;;;8.6;6.5;;;;;;;14.8;48.1;97900;;;;
2023/04/23 20:55:41;;;;;;;8.6;6.5;;;;;;;14.6;48.5;97910;;;;
2023/04/23 21:05:43;;;;;;;8.6;6.5;;;;;;;14.3;47.9;97910;;;;
2023/04/23 21:16:41;;;;;;;9.3;6.2;;;;;;;13.9;52.1;97930;;;;
2023/04/23 21:26:41;;;;;;;9.3;6.2;;;;;;;13.4;52.7;97930;;;;
2023/04/23 21:36:43;;;;;;;9.3;6.2;;;;;;;12.9;53.5;97930;;;;
2023/04/23 21:46:43;;;;;;;12.7;8.5;;;;;;;12.4;53.2;97930;;;;
2023/04/23 21:56:41;;;;;;;12.7;8.5;;;;;;;12.1;54.3;97920;;;;
2023/04/23 22:06:43;;;;;;;12.7;8.5;;;;;;;11.9;54.3;97910;;;;
2023/04/23 22:17:42;;;;;;;9.2;5.7;;;;;;;11.7;55.9;97910;;;;
2023/04/23 22:27:41;;;;;;;9.2;5.7;;;;;;;11.6;56.1;97910;;;;
2023/04/23 22:37:41;;;;;;;9.2;5.7;;;;;;;11.4;57.3;97900;;;;
2023/04/23 22:48:43;;;;;;;10.4;5;;;;;;;11.2;57.8;97910;;;;
2023/04/23 22:58:41;;;;;;;10.4;5;;;;;;;11.2;57.9;97900;;;;
2023/04/23 23:09:41;;;;;;;7.5;5.2;;;;;;;11;57.9;97880;;;;
2023/04/23 23:20:43;;;;;;;7.5;5.2;;;;;;;10.9;57.8;97880;;;;
2023/04/23 23:30:41;;;;;;;7.5;5.2;;;;;;;10.7;59;97880;;;;
2023/04/23 23:41:41;;;;;;;7.7;4.5;;;;;;;10.4;58.6;97880;;;;
2023/04/23 23:51:42;;;;;;;7.7;4.5;;;;;;;10.3;59.3;97870;;;;
